sensor_id;sensor_type;location;lat;lon;timestamp;pressure;altitude;pressure_sealevel;temperature;humidity
12215;BME280;6170;42.206;24.142;2023-07-31T00:00:16;98188.31;;;24.38;56.15
12215;BME280;6170;42.206;24.142;2023-07-31T00:02:43;98218.38;;;24.66;55.88
12215;BME280;6170;42.206;24.142;2023-07-31T00:05:10;98170.16;;;24.42;55.89
12215;BME280;6170;42.206;24.142;2023-07-31T00:07:37;98175.72;;;24.37;55.99
12215;BME280;6170;42.206;24.142;2023-07-31T00:10:04;98179.09;;;24.21;56.51
12215;BME280;6170;42.206;24.142;2023-07-31T00:12:31;98179.78;;;24.26;56.82
12215;BME280;6170;42.206;24.142;2023-07-31T00:14:58;98176.84;;;24.36;56.06
12215;BME280;6170;42.206;24.142;2023-07-31T00:17:26;98187.78;;;24.36;56.14
12215;BME280;6170;42.206;24.142;2023-07-31T00:19:53;98194.59;;;24.11;57.07
12215;BME280;6170;42.206;24.142;2023-07-31T00:22:20;98204.38;;;24.12;56.72
12215;BME280;6170;42.206;24.142;2023-07-31T00:24:47;98196.44;;;24.16;56.77
12215;BME280;6170;42.206;24.142;2023-07-31T00:27:14;98202.69;;;24.16;56.77
12215;BME280;6170;42.206;24.142;2023-07-31T00:29:41;98183.81;;;23.74;57.49
12215;BME280;6170;42.206;24.142;2023-07-31T00:32:08;98150.28;;;23.36;57.59
12215;BME280;6170;42.206;24.142;2023-07-31T00:34:37;98267.00;;;24.33;57.82
12215;BME280;6170;42.206;24.142;2023-07-31T00:37:04;98219.56;;;23.78;59.03
12215;BME280;6170;42.206;24.142;2023-07-31T00:39:34;98231.03;;;23.80;58.94
12215;BME280;6170;42.206;24.142;2023-07-31T00:42:01;98279.47;;;24.25;59.26
12215;BME280;6170;42.206;24.142;2023-07-31T00:44:28;98214.31;;;23.95;59.08
12215;BME280;6170;42.206;24.142;2023-07-31T00:46:56;98235.63;;;24.11;59.38
12215;BME280;6170;42.206;24.142;2023-07-31T00:49:24;98238.47;;;24.06;60.18
12215;BME280;6170;42.206;24.142;2023-07-31T00:51:53;98228.44;;;24.02;60.56
12215;BME280;6170;42.206;24.142;2023-07-31T00:54:22;98277.94;;;24.19;62.41
12215;BME280;6170;42.206;24.142;2023-07-31T00:56:50;98231.88;;;23.94;63.17
12215;BME280;6170;42.206;24.142;2023-07-31T00:59:19;98239.84;;;23.90;64.37
12215;BME280;6170;42.206;24.142;2023-07-31T01:01:46;98225.03;;;23.78;64.35
12215;BME280;6170;42.206;24.142;2023-07-31T01:04:14;98232.75;;;23.76;65.18
12215;BME280;6170;42.206;24.142;2023-07-31T01:06:44;98225.06;;;23.91;65.26
12215;BME280;6170;42.206;24.142;2023-07-31T01:09:22;98238.81;;;23.72;67.01
12215;BME280;6170;42.206;24.142;2023-07-31T01:11:57;98227.94;;;23.54;68.15
12215;BME280;6170;42.206;24.142;2023-07-31T01:14:25;98220.44;;;23.59;68.35
12215;BME280;6170;42.206;24.142;2023-07-31T01:16:52;98229.56;;;23.36;69.79
12215;BME280;6170;42.206;24.142;2023-07-31T01:19:22;98211.78;;;23.20;70.62
12215;BME280;6170;42.206;24.142;2023-07-31T01:22:11;98217.44;;;23.10;72.72
12215;BME280;6170;42.206;24.142;2023-07-31T01:24:52;98212.72;;;22.97;75.78
12215;BME280;6170;42.206;24.142;2023-07-31T01:27:25;98201.31;;;22.90;76.32
12215;BME280;6170;42.206;24.142;2023-07-31T01:30:00;98190.38;;;22.52;77.65
12215;BME280;6170;42.206;24.142;2023-07-31T01:32:30;98194.81;;;22.48;78.10
12215;BME280;6170;42.206;24.142;2023-07-31T01:34:57;98184.50;;;22.40;77.01
12215;BME280;6170;42.206;24.142;2023-07-31T01:37:28;98192.13;;;22.43;77.04
12215;BME280;6170;42.206;24.142;2023-07-31T01:39:55;98184.28;;;22.36;77.94
12215;BME280;6170;42.206;24.142;2023-07-31T01:42:24;98189.19;;;22.58;77.37
12215;BME280;6170;42.206;24.142;2023-07-31T01:44:51;98192.28;;;22.52;77.11
12215;BME280;6170;42.206;24.142;2023-07-31T01:47:18;98197.81;;;22.47;77.78
12215;BME280;6170;42.206;24.142;2023-07-31T01:49:45;98207.31;;;22.49;76.90
12215;BME280;6170;42.206;24.142;2023-07-31T01:52:12;98214.25;;;22.42;78.34
12215;BME280;6170;42.206;24.142;2023-07-31T01:54:39;98203.53;;;22.26;77.22
12215;BME280;6170;42.206;24.142;2023-07-31T01:57:06;98212.13;;;22.57;75.16
12215;BME280;6170;42.206;24.142;2023-07-31T01:59:35;98204.63;;;22.68;74.69
12215;BME280;6170;42.206;24.142;2023-07-31T02:02:02;98200.97;;;22.77;73.68
12215;BME280;6170;42.206;24.142;2023-07-31T02:04:29;98191.53;;;22.70;74.85
12215;BME280;6170;42.206;24.142;2023-07-31T02:06:55;98202.88;;;22.77;74.88
12215;BME280;6170;42.206;24.142;2023-07-31T02:09:23;98198.38;;;22.86;74.58
12215;BME280;6170;42.206;24.142;2023-07-31T02:11:50;98206.16;;;22.79;75.00
12215;BME280;6170;42.206;24.142;2023-07-31T02:14:17;98194.75;;;22.72;75.45
12215;BME280;6170;42.206;24.142;2023-07-31T02:16:45;98203.31;;;22.65;75.96
12215;BME280;6170;42.206;24.142;2023-07-31T02:19:12;98197.53;;;22.67;75.97
12215;BME280;6170;42.206;24.142;2023-07-31T02:21:39;98207.81;;;22.75;76.07
12215;BME280;6170;42.206;24.142;2023-07-31T02:24:06;98199.56;;;22.80;75.24
12215;BME280;6170;42.206;24.142;2023-07-31T02:26:33;98176.41;;;22.54;76.69
12215;BME280;6170;42.206;24.142;2023-07-31T02:29:00;98183.97;;;22.80;75.00
12215;BME280;6170;42.206;24.142;2023-07-31T02:31:27;98185.28;;;23.02;74.17
12215;BME280;6170;42.206;24.142;2023-07-31T02:33:55;98187.78;;;23.17;74.45
12215;BME280;6170;42.206;24.142;2023-07-31T02:36:22;98237.94;;;23.26;75.19
12215;BME280;6170;42.206;24.142;2023-07-31T02:38:49;98210.25;;;23.14;75.17
12215;BME280;6170;42.206;24.142;2023-07-31T02:41:16;98200.38;;;22.99;75.00
12215;BME280;6170;42.206;24.142;2023-07-31T02:43:43;98204.91;;;23.22;73.68
12215;BME280;6170;42.206;24.142;2023-07-31T02:46:10;98216.22;;;23.16;74.89
12215;BME280;6170;42.206;24.142;2023-07-31T02:48:37;98209.03;;;22.88;75.38
12215;BME280;6170;42.206;24.142;2023-07-31T02:51:06;98223.19;;;23.08;74.84
12215;BME280;6170;42.206;24.142;2023-07-31T02:53:33;98223.84;;;22.81;75.92
12215;BME280;6170;42.206;24.142;2023-07-31T02:56:00;98225.56;;;22.77;76.71
12215;BME280;6170;42.206;24.142;2023-07-31T02:58:27;98219.50;;;22.80;75.69
12215;BME280;6170;42.206;24.142;2023-07-31T03:00:53;98216.81;;;22.57;76.96
12215;BME280;6170;42.206;24.142;2023-07-31T03:03:21;98216.97;;;22.65;76.65
12215;BME280;6170;42.206;24.142;2023-07-31T03:05:48;98214.28;;;22.60;77.47
12215;BME280;6170;42.206;24.142;2023-07-31T03:08:16;98218.16;;;22.78;75.58
12215;BME280;6170;42.206;24.142;2023-07-31T03:10:43;98230.78;;;22.74;75.67
12215;BME280;6170;42.206;24.142;2023-07-31T03:13:10;98231.81;;;22.78;76.14
12215;BME280;6170;42.206;24.142;2023-07-31T03:15:38;98229.78;;;22.65;75.34
12215;BME280;6170;42.206;24.142;2023-07-31T03:18:05;98237.47;;;22.63;76.21
12215;BME280;6170;42.206;24.142;2023-07-31T03:20:32;98250.19;;;22.49;77.40
12215;BME280;6170;42.206;24.142;2023-07-31T03:22:59;98244.00;;;22.43;78.09
12215;BME280;6170;42.206;24.142;2023-07-31T03:25:27;98252.19;;;22.43;77.56
12215;BME280;6170;42.206;24.142;2023-07-31T03:27:54;98251.22;;;22.34;77.63
12215;BME280;6170;42.206;24.142;2023-07-31T03:30:21;98254.94;;;22.43;77.38
12215;BME280;6170;42.206;24.142;2023-07-31T03:32:48;98247.34;;;22.35;77.11
12215;BME280;6170;42.206;24.142;2023-07-31T03:35:15;98258.09;;;22.50;76.72
12215;BME280;6170;42.206;24.142;2023-07-31T03:37:42;98242.50;;;22.08;77.65
12215;BME280;6170;42.206;24.142;2023-07-31T03:40:10;98264.88;;;22.34;77.41
12215;BME280;6170;42.206;24.142;2023-07-31T03:42:39;98260.91;;;22.21;77.48
12215;BME280;6170;42.206;24.142;2023-07-31T03:45:07;98261.59;;;22.32;76.49
12215;BME280;6170;42.206;24.142;2023-07-31T03:47:34;98271.13;;;22.34;77.27
12215;BME280;6170;42.206;24.142;2023-07-31T03:50:01;98261.22;;;22.62;75.84
12215;BME280;6170;42.206;24.142;2023-07-31T03:52:29;98285.25;;;22.84;75.70
12215;BME280;6170;42.206;24.142;2023-07-31T03:54:56;98261.88;;;22.54;76.56
12215;BME280;6170;42.206;24.142;2023-07-31T03:57:23;98201.22;;;22.15;76.15
12215;BME280;6170;42.206;24.142;2023-07-31T03:59:51;98265.13;;;22.32;77.61
12215;BME280;6170;42.206;24.142;2023-07-31T04:02:18;98271.81;;;22.45;77.01
12215;BME280;6170;42.206;24.142;2023-07-31T04:04:45;98261.88;;;22.54;76.42
12215;BME280;6170;42.206;24.142;2023-07-31T04:07:12;98258.22;;;22.40;77.38
12215;BME280;6170;42.206;24.142;2023-07-31T04:09:39;98254.75;;;22.34;77.65
12215;BME280;6170;42.206;24.142;2023-07-31T04:12:07;98254.72;;;22.58;76.41
12215;BME280;6170;42.206;24.142;2023-07-31T04:14:34;98247.63;;;22.57;76.81
12215;BME280;6170;42.206;24.142;2023-07-31T04:17:02;98253.19;;;22.52;76.68
12215;BME280;6170;42.206;24.142;2023-07-31T04:19:29;98255.31;;;22.55;76.43
12215;BME280;6170;42.206;24.142;2023-07-31T04:21:56;98250.06;;;22.59;76.47
12215;BME280;6170;42.206;24.142;2023-07-31T04:24:23;98257.59;;;22.48;76.50
12215;BME280;6170;42.206;24.142;2023-07-31T04:26:50;98246.69;;;22.48;75.69
12215;BME280;6170;42.206;24.142;2023-07-31T04:29:18;98261.75;;;22.64;75.31
12215;BME280;6170;42.206;24.142;2023-07-31T04:31:45;98277.00;;;22.89;74.27
12215;BME280;6170;42.206;24.142;2023-07-31T04:34:13;98277.16;;;22.98;73.43
12215;BME280;6170;42.206;24.142;2023-07-31T04:36:40;98267.66;;;23.14;72.81
12215;BME280;6170;42.206;24.142;2023-07-31T04:39:07;98295.09;;;23.41;71.96
12215;BME280;6170;42.206;24.142;2023-07-31T04:41:34;98290.59;;;23.50;72.49
12215;BME280;6170;42.206;24.142;2023-07-31T04:44:01;98276.13;;;24.28;69.97
12215;BME280;6170;42.206;24.142;2023-07-31T04:46:29;98284.06;;;25.20;68.35
12215;BME280;6170;42.206;24.142;2023-07-31T04:48:56;98266.34;;;25.04;68.19
12215;BME280;6170;42.206;24.142;2023-07-31T04:51:24;98282.34;;;25.69;66.42
12215;BME280;6170;42.206;24.142;2023-07-31T04:53:52;98331.03;;;26.30;64.65
12215;BME280;6170;42.206;24.142;2023-07-31T04:56:19;98316.69;;;26.33;64.85
12215;BME280;6170;42.206;24.142;2023-07-31T04:58:46;98270.94;;;25.75;65.46
12215;BME280;6170;42.206;24.142;2023-07-31T05:01:13;98275.19;;;26.43;63.53
12215;BME280;6170;42.206;24.142;2023-07-31T05:03:40;98286.97;;;26.92;62.50
12215;BME280;6170;42.206;24.142;2023-07-31T05:06:08;98270.19;;;27.02;61.07
12215;BME280;6170;42.206;24.142;2023-07-31T05:08:36;98300.44;;;27.02;61.37
12215;BME280;6170;42.206;24.142;2023-07-31T05:11:03;98277.78;;;27.05;60.77
12215;BME280;6170;42.206;24.142;2023-07-31T05:13:30;98280.53;;;27.22;61.07
12215;BME280;6170;42.206;24.142;2023-07-31T05:15:58;98283.63;;;27.63;60.35
12215;BME280;6170;42.206;24.142;2023-07-31T05:18:25;98275.97;;;27.95;58.67
12215;BME280;6170;42.206;24.142;2023-07-31T05:20:52;98264.31;;;27.89;59.80
12215;BME280;6170;42.206;24.142;2023-07-31T05:23:19;98285.53;;;27.80;58.88
12215;BME280;6170;42.206;24.142;2023-07-31T05:25:48;98277.16;;;27.68;60.29
12215;BME280;6170;42.206;24.142;2023-07-31T05:28:15;98274.47;;;28.06;59.22
12215;BME280;6170;42.206;24.142;2023-07-31T05:30:42;98285.84;;;28.51;58.48
12215;BME280;6170;42.206;24.142;2023-07-31T05:33:09;98286.78;;;28.93;57.83
12215;BME280;6170;42.206;24.142;2023-07-31T05:35:36;98298.06;;;28.79;56.92
12215;BME280;6170;42.206;24.142;2023-07-31T05:38:04;98286.78;;;28.93;57.32
12215;BME280;6170;42.206;24.142;2023-07-31T05:40:32;98282.47;;;28.83;56.95
12215;BME280;6170;42.206;24.142;2023-07-31T05:43:01;98347.72;;;28.71;57.17
12215;BME280;6170;42.206;24.142;2023-07-31T05:45:28;98296.50;;;28.06;58.70
12215;BME280;6170;42.206;24.142;2023-07-31T05:47:55;98285.97;;;28.63;57.72
12215;BME280;6170;42.206;24.142;2023-07-31T05:50:22;98289.97;;;28.36;59.05
12215;BME280;6170;42.206;24.142;2023-07-31T05:52:49;98291.44;;;29.01;58.23
12215;BME280;6170;42.206;24.142;2023-07-31T05:55:17;98287.63;;;28.47;58.55
12215;BME280;6170;42.206;24.142;2023-07-31T05:57:44;98295.09;;;27.91;59.87
12215;BME280;6170;42.206;24.142;2023-07-31T06:00:14;98290.09;;;27.42;60.78
12215;BME280;6170;42.206;24.142;2023-07-31T06:02:41;98264.03;;;26.96;62.41
12215;BME280;6170;42.206;24.142;2023-07-31T06:05:08;98286.03;;;27.13;62.48
12215;BME280;6170;42.206;24.142;2023-07-31T06:07:36;98285.88;;;27.18;62.73
12215;BME280;6170;42.206;24.142;2023-07-31T06:10:04;98277.00;;;27.64;61.23
12215;BME280;6170;42.206;24.142;2023-07-31T06:12:31;98261.47;;;27.25;61.50
12215;BME280;6170;42.206;24.142;2023-07-31T06:14:58;98283.03;;;26.75;62.91
12215;BME280;6170;42.206;24.142;2023-07-31T06:17:27;98270.41;;;26.66;63.30
12215;BME280;6170;42.206;24.142;2023-07-31T06:19:54;98274.59;;;27.54;62.32
12215;BME280;6170;42.206;24.142;2023-07-31T06:22:21;98291.56;;;28.37;60.20
12215;BME280;6170;42.206;24.142;2023-07-31T06:24:49;98242.22;;;28.06;60.34
12215;BME280;6170;42.206;24.142;2023-07-31T06:27:16;98246.88;;;28.61;59.46
12215;BME280;6170;42.206;24.142;2023-07-31T06:29:43;98208.91;;;28.37;58.54
12215;BME280;6170;42.206;24.142;2023-07-31T06:32:10;98271.66;;;29.20;59.50
12215;BME280;6170;42.206;24.142;2023-07-31T06:34:39;98261.84;;;29.31;58.05
12215;BME280;6170;42.206;24.142;2023-07-31T06:37:06;98276.72;;;29.59;57.86
12215;BME280;6170;42.206;24.142;2023-07-31T06:39:33;98258.50;;;29.46;58.44
12215;BME280;6170;42.206;24.142;2023-07-31T06:42:01;98267.09;;;29.98;56.88
12215;BME280;6170;42.206;24.142;2023-07-31T06:44:28;98268.22;;;29.97;56.77
12215;BME280;6170;42.206;24.142;2023-07-31T06:46:55;98247.59;;;29.62;56.00
12215;BME280;6170;42.206;24.142;2023-07-31T06:49:22;98267.25;;;30.14;56.51
12215;BME280;6170;42.206;24.142;2023-07-31T06:51:51;98279.78;;;29.78;54.60
12215;BME280;6170;42.206;24.142;2023-07-31T06:54:18;98273.84;;;29.56;56.56
12215;BME280;6170;42.206;24.142;2023-07-31T06:56:46;98264.13;;;30.15;54.62
12215;BME280;6170;42.206;24.142;2023-07-31T06:59:13;98274.22;;;29.99;55.13
12215;BME280;6170;42.206;24.142;2023-07-31T07:01:40;98272.78;;;30.26;54.82
12215;BME280;6170;42.206;24.142;2023-07-31T07:04:07;98272.38;;;30.48;53.87
12215;BME280;6170;42.206;24.142;2023-07-31T07:06:34;98270.38;;;30.85;53.48
12215;BME280;6170;42.206;24.142;2023-07-31T07:09:03;98231.09;;;30.67;52.80
12215;BME280;6170;42.206;24.142;2023-07-31T07:11:31;98273.94;;;31.22;53.05
12215;BME280;6170;42.206;24.142;2023-07-31T07:13:59;98297.41;;;31.40;50.55
12215;BME280;6170;42.206;24.142;2023-07-31T07:16:28;98280.00;;;31.40;51.78
12215;BME280;6170;42.206;24.142;2023-07-31T07:18:56;98287.84;;;31.78;50.85
12215;BME280;6170;42.206;24.142;2023-07-31T07:21:23;98280.19;;;31.47;51.19
12215;BME280;6170;42.206;24.142;2023-07-31T07:23:50;98280.66;;;31.09;51.36
12215;BME280;6170;42.206;24.142;2023-07-31T07:26:20;98280.28;;;31.23;51.46
12215;BME280;6170;42.206;24.142;2023-07-31T07:28:47;98282.97;;;31.59;49.85
12215;BME280;6170;42.206;24.142;2023-07-31T07:31:14;98280.75;;;31.52;49.20
12215;BME280;6170;42.206;24.142;2023-07-31T07:33:41;98257.72;;;31.76;50.91
12215;BME280;6170;42.206;24.142;2023-07-31T07:36:08;98250.53;;;32.03;49.24
12215;BME280;6170;42.206;24.142;2023-07-31T07:38:36;98280.22;;;31.75;48.73
12215;BME280;6170;42.206;24.142;2023-07-31T07:41:05;98230.34;;;31.47;49.46
12215;BME280;6170;42.206;24.142;2023-07-31T07:43:33;98277.22;;;32.23;47.09
12215;BME280;6170;42.206;24.142;2023-07-31T07:46:00;98272.13;;;32.25;48.52
12215;BME280;6170;42.206;24.142;2023-07-31T07:48:27;98271.72;;;31.68;48.80
12215;BME280;6170;42.206;24.142;2023-07-31T07:50:55;98292.16;;;32.34;48.82
12215;BME280;6170;42.206;24.142;2023-07-31T07:53:22;98302.00;;;32.47;48.97
12215;BME280;6170;42.206;24.142;2023-07-31T07:55:49;98254.72;;;31.97;48.13
12215;BME280;6170;42.206;24.142;2023-07-31T07:58:16;98265.69;;;32.52;47.04
12215;BME280;6170;42.206;24.142;2023-07-31T08:00:50;98212.88;;;32.49;46.06
12215;BME280;6170;42.206;24.142;2023-07-31T08:03:17;98269.34;;;32.88;47.75
12215;BME280;6170;42.206;24.142;2023-07-31T08:05:45;98267.84;;;32.75;47.56
12215;BME280;6170;42.206;24.142;2023-07-31T08:08:14;98263.88;;;33.11;46.15
12215;BME280;6170;42.206;24.142;2023-07-31T08:10:41;98248.56;;;32.82;46.48
12215;BME280;6170;42.206;24.142;2023-07-31T08:13:10;98253.31;;;32.81;45.27
12215;BME280;6170;42.206;24.142;2023-07-31T08:15:37;98244.56;;;32.64;46.07
12215;BME280;6170;42.206;24.142;2023-07-31T08:18:06;98238.38;;;32.07;44.73
12215;BME280;6170;42.206;24.142;2023-07-31T08:20:33;98284.81;;;32.42;47.43
12215;BME280;6170;42.206;24.142;2023-07-31T08:23:00;98255.13;;;32.74;47.15
12215;BME280;6170;42.206;24.142;2023-07-31T08:25:27;98241.88;;;33.18;45.01
12215;BME280;6170;42.206;24.142;2023-07-31T08:27:54;98249.03;;;32.68;46.18
12215;BME280;6170;42.206;24.142;2023-07-31T08:30:22;98183.41;;;32.76;44.68
12215;BME280;6170;42.206;24.142;2023-07-31T08:32:49;98252.63;;;33.38;45.01
12215;BME280;6170;42.206;24.142;2023-07-31T08:35:18;98222.94;;;33.42;43.70
12215;BME280;6170;42.206;24.142;2023-07-31T08:37:45;98213.56;;;33.51;44.73
12215;BME280;6170;42.206;24.142;2023-07-31T08:40:12;98230.41;;;33.38;44.37
12215;BME280;6170;42.206;24.142;2023-07-31T08:42:46;98216.97;;;33.21;45.58
12215;BME280;6170;42.206;24.142;2023-07-31T08:45:15;98267.25;;;33.55;47.29
12215;BME280;6170;42.206;24.142;2023-07-31T08:47:45;98228.03;;;33.60;45.50
12215;BME280;6170;42.206;24.142;2023-07-31T08:50:13;98233.81;;;33.90;46.08
12215;BME280;6170;42.206;24.142;2023-07-31T08:52:42;98231.41;;;34.11;45.03
12215;BME280;6170;42.206;24.142;2023-07-31T08:55:09;98219.47;;;34.30;43.62
12215;BME280;6170;42.206;24.142;2023-07-31T08:57:37;98235.91;;;34.38;44.77
12215;BME280;6170;42.206;24.142;2023-07-31T09:00:07;98219.09;;;33.66;44.78
12215;BME280;6170;42.206;24.142;2023-07-31T09:02:40;98237.41;;;34.13;44.83
12215;BME280;6170;42.206;24.142;2023-07-31T09:05:09;98224.38;;;34.17;45.07
12215;BME280;6170;42.206;24.142;2023-07-31T09:07:38;98242.41;;;34.72;45.88
12215;BME280;6170;42.206;24.142;2023-07-31T09:10:08;98229.75;;;34.52;45.64
12215;BME280;6170;42.206;24.142;2023-07-31T09:12:35;98227.66;;;34.22;44.97
12215;BME280;6170;42.206;24.142;2023-07-31T09:15:04;98225.94;;;34.63;44.57
12215;BME280;6170;42.206;24.142;2023-07-31T09:17:32;98251.06;;;33.60;43.79
12215;BME280;6170;42.206;24.142;2023-07-31T09:20:13;98271.97;;;33.16;45.15
12215;BME280;6170;42.206;24.142;2023-07-31T09:22:40;98231.78;;;33.29;46.19
12215;BME280;6170;42.206;24.142;2023-07-31T09:25:16;98230.91;;;33.82;44.31
12215;BME280;6170;42.206;24.142;2023-07-31T09:27:48;98241.25;;;34.73;44.95
12215;BME280;6170;42.206;24.142;2023-07-31T09:30:15;98289.78;;;35.02;42.75
12215;BME280;6170;42.206;24.142;2023-07-31T09:32:43;98245.22;;;35.02;42.03
12215;BME280;6170;42.206;24.142;2023-07-31T09:35:19;98238.44;;;34.24;42.64
12215;BME280;6170;42.206;24.142;2023-07-31T09:37:51;98232.66;;;34.59;42.56
12215;BME280;6170;42.206;24.142;2023-07-31T09:40:26;98285.38;;;35.53;42.22
12215;BME280;6170;42.206;24.142;2023-07-31T09:42:56;98234.13;;;35.05;41.72
12215;BME280;6170;42.206;24.142;2023-07-31T09:45:24;98233.41;;;35.08;41.31
12215;BME280;6170;42.206;24.142;2023-07-31T09:47:51;98198.63;;;34.95;41.30
12215;BME280;6170;42.206;24.142;2023-07-31T09:50:21;98233.97;;;34.91;40.52
12215;BME280;6170;42.206;24.142;2023-07-31T09:52:50;98213.25;;;35.19;40.56
12215;BME280;6170;42.206;24.142;2023-07-31T09:55:18;98210.25;;;34.25;42.15
12215;BME280;6170;42.206;24.142;2023-07-31T09:57:48;98197.31;;;34.37;41.41
12215;BME280;6170;42.206;24.142;2023-07-31T10:00:17;98223.38;;;34.74;40.54
12215;BME280;6170;42.206;24.142;2023-07-31T10:02:46;98211.84;;;34.26;40.88
12215;BME280;6170;42.206;24.142;2023-07-31T10:05:14;98202.13;;;34.40;40.04
12215;BME280;6170;42.206;24.142;2023-07-31T10:07:43;98203.91;;;34.06;41.41
12215;BME280;6170;42.206;24.142;2023-07-31T10:10:11;98215.31;;;34.43;42.13
12215;BME280;6170;42.206;24.142;2023-07-31T10:12:39;98208.47;;;34.89;39.68
12215;BME280;6170;42.206;24.142;2023-07-31T10:15:08;98188.88;;;35.12;40.01
12215;BME280;6170;42.206;24.142;2023-07-31T10:17:36;98201.13;;;33.83;41.95
12215;BME280;6170;42.206;24.142;2023-07-31T10:20:04;98199.44;;;33.36;42.41
12215;BME280;6170;42.206;24.142;2023-07-31T10:22:33;98189.81;;;32.95;41.69
12215;BME280;6170;42.206;24.142;2023-07-31T10:25:01;98186.84;;;32.69;42.52
12215;BME280;6170;42.206;24.142;2023-07-31T10:27:29;98190.22;;;32.78;43.00
12215;BME280;6170;42.206;24.142;2023-07-31T10:29:57;98185.91;;;32.30;44.23
12215;BME280;6170;42.206;24.142;2023-07-31T10:32:27;98167.16;;;32.74;45.60
12215;BME280;6170;42.206;24.142;2023-07-31T10:34:55;98177.31;;;33.63;44.98
12215;BME280;6170;42.206;24.142;2023-07-31T10:37:23;98163.94;;;34.37;42.15
12215;BME280;6170;42.206;24.142;2023-07-31T10:39:58;98153.59;;;34.90;42.59
12215;BME280;6170;42.206;24.142;2023-07-31T10:42:32;98172.72;;;34.91;40.21
12215;BME280;6170;42.206;24.142;2023-07-31T10:45:01;98156.34;;;35.16;39.79
12215;BME280;6170;42.206;24.142;2023-07-31T10:47:30;98151.25;;;34.92;40.40
12215;BME280;6170;42.206;24.142;2023-07-31T10:50:16;98152.41;;;34.91;39.62
12215;BME280;6170;42.206;24.142;2023-07-31T10:52:46;98148.72;;;35.13;41.61
12215;BME280;6170;42.206;24.142;2023-07-31T10:55:15;98145.47;;;35.07;40.93
12215;BME280;6170;42.206;24.142;2023-07-31T10:57:44;98143.81;;;34.20;41.32
12215;BME280;6170;42.206;24.142;2023-07-31T11:00:20;98161.44;;;34.81;40.94
12215;BME280;6170;42.206;24.142;2023-07-31T11:03:03;98131.50;;;35.37;38.54
12215;BME280;6170;42.206;24.142;2023-07-31T11:05:47;98187.78;;;35.17;40.70
12215;BME280;6170;42.206;24.142;2023-07-31T11:08:16;98150.47;;;34.65;40.15
12215;BME280;6170;42.206;24.142;2023-07-31T11:10:45;98151.47;;;34.04;41.12
12215;BME280;6170;42.206;24.142;2023-07-31T11:13:13;98130.94;;;33.25;42.46
12215;BME280;6170;42.206;24.142;2023-07-31T11:15:41;98144.53;;;33.95;41.84
12215;BME280;6170;42.206;24.142;2023-07-31T11:18:09;98143.75;;;34.17;42.38
12215;BME280;6170;42.206;24.142;2023-07-31T11:20:37;98141.75;;;33.95;41.77
12215;BME280;6170;42.206;24.142;2023-07-31T11:23:08;98092.75;;;32.99;42.51
12215;BME280;6170;42.206;24.142;2023-07-31T11:25:36;98137.81;;;32.92;43.16
12215;BME280;6170;42.206;24.142;2023-07-31T11:28:06;98134.13;;;32.88;43.32
12215;BME280;6170;42.206;24.142;2023-07-31T11:30:33;98117.06;;;32.86;42.25
12215;BME280;6170;42.206;24.142;2023-07-31T11:33:02;98130.22;;;32.70;42.06
12215;BME280;6170;42.206;24.142;2023-07-31T11:35:32;98113.41;;;32.82;44.36
12215;BME280;6170;42.206;24.142;2023-07-31T11:37:59;98112.56;;;33.59;43.03
12215;BME280;6170;42.206;24.142;2023-07-31T11:40:27;98126.03;;;33.37;42.59
12215;BME280;6170;42.206;24.142;2023-07-31T11:42:56;98111.19;;;33.11;42.48
12215;BME280;6170;42.206;24.142;2023-07-31T11:45:27;98129.19;;;33.36;42.29
12215;BME280;6170;42.206;24.142;2023-07-31T11:47:55;98127.38;;;33.24;42.37
12215;BME280;6170;42.206;24.142;2023-07-31T11:50:23;98122.38;;;33.33;41.81
12215;BME280;6170;42.206;24.142;2023-07-31T11:52:57;98115.94;;;33.68;43.21
12215;BME280;6170;42.206;24.142;2023-07-31T11:55:26;98095.22;;;34.14;42.60
12215;BME280;6170;42.206;24.142;2023-07-31T11:57:57;98112.78;;;34.18;41.63
12215;BME280;6170;42.206;24.142;2023-07-31T12:00:24;98109.59;;;34.16;41.19
12215;BME280;6170;42.206;24.142;2023-07-31T12:02:52;98111.63;;;34.46;41.00
12215;BME280;6170;42.206;24.142;2023-07-31T12:05:21;98102.25;;;33.82;42.03
12215;BME280;6170;42.206;24.142;2023-07-31T12:07:50;98082.97;;;33.05;41.75
12215;BME280;6170;42.206;24.142;2023-07-31T12:10:29;98096.91;;;32.70;44.69
12215;BME280;6170;42.206;24.142;2023-07-31T12:12:58;98083.03;;;32.70;42.97
12215;BME280;6170;42.206;24.142;2023-07-31T12:15:29;98098.16;;;32.73;43.34
12215;BME280;6170;42.206;24.142;2023-07-31T12:17:57;98089.38;;;32.90;42.74
12215;BME280;6170;42.206;24.142;2023-07-31T12:20:25;98089.31;;;32.67;43.42
12215;BME280;6170;42.206;24.142;2023-07-31T12:22:52;98089.56;;;33.39;45.22
12215;BME280;6170;42.206;24.142;2023-07-31T12:25:19;98086.56;;;33.93;43.34
12215;BME280;6170;42.206;24.142;2023-07-31T12:27:47;98071.13;;;33.73;42.93
12215;BME280;6170;42.206;24.142;2023-07-31T12:30:27;98096.09;;;33.08;41.79
12215;BME280;6170;42.206;24.142;2023-07-31T12:32:54;98081.13;;;31.89;43.93
12215;BME280;6170;42.206;24.142;2023-07-31T12:35:21;98084.97;;;32.16;44.14
12215;BME280;6170;42.206;24.142;2023-07-31T12:37:48;98070.81;;;32.56;44.67
12215;BME280;6170;42.206;24.142;2023-07-31T12:40:15;98059.88;;;33.01;44.15
12215;BME280;6170;42.206;24.142;2023-07-31T12:42:42;98060.16;;;33.15;42.96
12215;BME280;6170;42.206;24.142;2023-07-31T12:45:10;98052.34;;;33.21;43.41
12215;BME280;6170;42.206;24.142;2023-07-31T12:47:37;98068.97;;;33.63;42.21
12215;BME280;6170;42.206;24.142;2023-07-31T12:50:06;98054.22;;;33.59;41.12
12215;BME280;6170;42.206;24.142;2023-07-31T12:52:33;98053.28;;;33.74;41.53
12215;BME280;6170;42.206;24.142;2023-07-31T12:55:00;98041.00;;;33.52;42.51
12215;BME280;6170;42.206;24.142;2023-07-31T12:57:27;98049.94;;;33.65;40.33
12215;BME280;6170;42.206;24.142;2023-07-31T12:59:54;98048.22;;;33.79;42.46
12215;BME280;6170;42.206;24.142;2023-07-31T13:02:22;98039.25;;;34.16;40.13
12215;BME280;6170;42.206;24.142;2023-07-31T13:04:50;98044.75;;;34.12;41.65